createdAt,value
2019-02-19T00:02:22.760Z,10.63
2019-02-19T00:04:52.046Z,13.40
2019-02-19T00:07:21.282Z,11.03
2019-02-19T00:09:50.593Z,11.60
2019-02-19T00:12:19.851Z,18.17
2019-02-19T00:14:49.164Z,10.45
2019-02-19T00:17:18.361Z,12.63
2019-02-19T00:19:47.602Z,11.15
2019-02-19T00:22:16.839Z,11.33
2019-02-19T00:24:46.147Z,13.32
2019-02-19T00:27:15.473Z,11.65
2019-02-19T00:29:44.796Z,11.40
2019-02-19T00:32:14.023Z,12.82
2019-02-19T00:34:43.305Z,11.75
2019-02-19T00:37:12.543Z,11.25
2019-02-19T00:39:41.759Z,13.00
2019-02-19T00:42:11.025Z,11.83
2019-02-19T00:44:40.213Z,10.78
2019-02-19T00:47:09.487Z,10.00
2019-02-19T00:49:38.789Z,11.63
2019-02-19T00:52:08.053Z,15.15
2019-02-19T00:54:37.390Z,9.35
2019-02-19T00:57:06.580Z,14.10
2019-02-19T00:59:35.753Z,10.08
2019-02-19T01:02:05.049Z,10.78
2019-02-19T01:04:34.333Z,9.40
2019-02-19T01:07:03.633Z,12.68
2019-02-19T01:09:32.886Z,11.00
2019-02-19T01:12:02.196Z,13.48
2019-02-19T01:14:31.417Z,10.90
2019-02-19T01:17:00.630Z,11.75
2019-02-19T01:19:29.843Z,10.48
2019-02-19T01:21:59.032Z,10.35
2019-02-19T01:24:28.245Z,12.33
2019-02-19T01:26:57.483Z,10.00
2019-02-19T01:29:26.800Z,10.88
2019-02-19T01:31:55.997Z,11.00
2019-02-19T01:34:25.261Z,12.55
2019-02-19T01:36:54.516Z,11.22
2019-02-19T01:39:23.758Z,9.00
2019-02-19T01:41:53.062Z,9.85
2019-02-19T01:44:22.371Z,9.45
2019-02-19T01:46:51.549Z,11.08
2019-02-19T01:49:20.824Z,9.23
2019-02-19T01:51:50.119Z,9.58
2019-02-19T01:54:19.418Z,10.23
2019-02-19T01:56:48.728Z,9.93
2019-02-19T01:59:17.959Z,9.65
2019-02-19T02:01:47.242Z,11.10
2019-02-19T02:04:16.467Z,10.70
2019-02-19T02:06:46.798Z,9.45
2019-02-19T02:09:16.064Z,10.82
2019-02-19T02:11:45.285Z,9.85
2019-02-19T02:14:14.583Z,8.90
2019-02-19T02:16:43.884Z,10.70
2019-02-19T02:19:14.093Z,10.55
2019-02-19T02:21:44.349Z,9.85
2019-02-19T02:24:13.610Z,11.53
2019-02-19T02:26:42.800Z,9.50
2019-02-19T02:29:12.085Z,11.85
2019-02-19T02:31:41.330Z,10.48
2019-02-19T02:34:10.634Z,11.73
2019-02-19T02:36:39.943Z,9.75
2019-02-19T02:39:09.246Z,10.00
2019-02-19T02:41:38.467Z,9.28
2019-02-19T02:44:07.755Z,10.65
2019-02-19T02:46:36.988Z,9.35
2019-02-19T02:49:06.242Z,10.38
2019-02-19T02:51:35.451Z,10.38
2019-02-19T02:54:04.703Z,8.30
2019-02-19T02:56:34.936Z,10.00
2019-02-19T02:59:05.190Z,10.43
2019-02-19T03:01:34.454Z,10.65
2019-02-19T03:04:03.745Z,8.40
2019-02-19T03:06:34.626Z,11.30
2019-02-19T03:09:04.570Z,11.68
2019-02-19T03:11:35.426Z,10.23
2019-02-19T03:14:04.732Z,9.23
2019-02-19T03:16:34.028Z,10.03
2019-02-19T03:19:03.339Z,10.15
2019-02-19T03:21:32.528Z,10.63
2019-02-19T03:24:01.750Z,12.33
2019-02-19T03:26:31.057Z,8.93
2019-02-19T03:29:00.380Z,8.05
2019-02-19T03:31:29.643Z,8.98
2019-02-19T03:33:59.022Z,8.13
2019-02-19T03:36:28.383Z,10.60
2019-02-19T03:38:57.539Z,10.13
2019-02-19T03:41:26.821Z,10.25
2019-02-19T03:43:56.022Z,9.68
2019-02-19T03:46:25.250Z,9.75
2019-02-19T03:48:54.474Z,10.88
2019-02-19T03:51:23.663Z,10.63
2019-02-19T03:53:52.906Z,9.63
2019-02-19T03:56:22.032Z,11.10
2019-02-19T03:58:51.260Z,9.75
2019-02-19T04:01:20.498Z,10.93
2019-02-19T04:03:49.707Z,11.30
2019-02-19T04:06:18.931Z,11.73
2019-02-19T04:08:48.170Z,9.95
2019-02-19T04:11:17.286Z,15.28
2019-02-19T04:13:46.470Z,11.35
2019-02-19T04:16:21.382Z,11.10
2019-02-19T04:18:46.413Z,9.55
2019-02-19T04:21:15.742Z,11.85
2019-02-19T04:23:45.959Z,13.90
2019-02-19T04:26:16.246Z,9.95
2019-02-19T04:28:45.428Z,10.78
2019-02-19T04:31:14.631Z,10.53
2019-02-19T04:33:43.934Z,14.10
2019-02-19T04:36:13.087Z,10.35
2019-02-19T04:38:42.326Z,14.35
2019-02-19T04:41:11.698Z,14.75
2019-02-19T04:43:40.924Z,10.28
2019-02-19T04:46:10.263Z,11.25
2019-02-19T04:48:39.595Z,11.48
2019-02-19T04:51:08.957Z,11.40
2019-02-19T04:53:38.293Z,10.60
2019-02-19T04:56:07.431Z,12.18
2019-02-19T04:58:36.685Z,11.08
2019-02-19T05:01:06.017Z,10.50
2019-02-19T05:03:35.332Z,10.60
2019-02-19T05:06:04.663Z,11.70
2019-02-19T05:08:33.961Z,9.10
2019-02-19T05:11:03.261Z,11.03
2019-02-19T05:13:32.562Z,10.93
2019-02-19T05:16:01.864Z,11.30
2019-02-19T05:18:31.151Z,11.50
2019-02-19T05:21:00.469Z,12.68
2019-02-19T05:23:29.771Z,12.58
2019-02-19T05:25:59.088Z,13.40
2019-02-19T05:28:28.393Z,10.95
2019-02-19T05:30:57.707Z,10.25
2019-02-19T05:33:27.025Z,14.23
2019-02-19T05:35:56.311Z,10.58
2019-02-19T05:38:25.538Z,11.75
2019-02-19T05:40:55.865Z,11.12
2019-02-19T05:43:25.100Z,12.53
2019-02-19T05:45:54.435Z,10.55
2019-02-19T05:48:23.753Z,11.43
2019-02-19T05:50:53.015Z,11.57
2019-02-19T05:53:22.328Z,10.48
2019-02-19T05:55:51.648Z,9.78
2019-02-19T05:58:20.943Z,12.03
2019-02-19T06:00:50.258Z,12.03
2019-02-19T06:03:19.473Z,12.53
2019-02-19T06:05:48.733Z,12.30
2019-02-19T06:08:17.941Z,10.48
2019-02-19T06:10:47.343Z,9.83
2019-02-19T06:13:16.495Z,13.08
2019-02-19T06:15:45.750Z,10.18
2019-02-19T06:18:15.032Z,12.07
2019-02-19T06:20:44.368Z,11.57
2019-02-19T06:23:13.680Z,12.88
2019-02-19T06:25:43.004Z,11.70
2019-02-19T06:28:12.289Z,10.25
2019-02-19T06:30:41.590Z,12.25
2019-02-19T06:33:10.893Z,11.25
2019-02-19T06:35:40.205Z,10.18
2019-02-19T06:38:09.490Z,13.80
2019-02-19T06:40:38.814Z,10.20
2019-02-19T06:43:08.046Z,11.08
2019-02-19T06:45:37.348Z,12.33
2019-02-19T06:48:06.685Z,10.85
2019-02-19T06:50:35.866Z,14.23
2019-02-19T06:53:05.252Z,11.83
2019-02-19T06:55:34.510Z,12.28
2019-02-19T06:58:03.834Z,11.30
2019-02-19T07:00:33.153Z,14.33
2019-02-19T07:03:09.849Z,13.43
2019-02-19T07:05:39.161Z,14.53
2019-02-19T07:08:08.495Z,13.80
2019-02-19T07:10:37.763Z,15.35
2019-02-19T07:13:07.108Z,17.80
2019-02-19T07:15:36.418Z,12.60
2019-02-19T07:18:05.697Z,18.62
2019-02-19T07:20:35.045Z,12.47
2019-02-19T07:23:04.333Z,12.98
2019-02-19T07:25:33.653Z,14.73
2019-02-19T07:28:02.977Z,11.35
2019-02-19T07:30:32.257Z,13.35
2019-02-19T07:33:01.610Z,11.93
2019-02-19T07:35:30.895Z,10.98
2019-02-19T07:38:00.211Z,12.55
2019-02-19T07:40:29.517Z,12.13
2019-02-19T07:42:58.797Z,13.78
2019-02-19T07:45:28.082Z,13.65
2019-02-19T07:47:57.397Z,11.60
2019-02-19T07:50:26.667Z,9.98
2019-02-19T07:52:56.012Z,11.25
2019-02-19T07:55:25.317Z,9.68
2019-02-19T07:57:54.596Z,10.60
2019-02-19T08:00:23.949Z,13.00
2019-02-19T08:02:53.229Z,10.63
2019-02-19T08:05:22.576Z,11.90
2019-02-19T08:07:51.877Z,11.20
2019-02-19T08:10:21.184Z,10.75
2019-02-19T08:12:50.512Z,10.38
2019-02-19T08:15:19.807Z,10.98
2019-02-19T08:17:49.131Z,14.83
2019-02-19T08:20:18.436Z,11.53
2019-02-19T08:22:47.768Z,11.55
2019-02-19T08:25:17.078Z,11.63
2019-02-19T08:27:46.412Z,10.25
2019-02-19T08:30:15.678Z,15.18
2019-02-19T08:32:44.993Z,11.70
2019-02-19T08:35:14.328Z,12.25
2019-02-19T08:37:43.633Z,12.50
2019-02-19T08:40:12.938Z,9.15
2019-02-19T08:42:42.237Z,11.57
2019-02-19T08:45:11.538Z,10.35
2019-02-19T08:47:42.921Z,11.55
2019-02-19T08:50:11.783Z,12.33
2019-02-19T08:52:41.074Z,15.08
2019-02-19T08:55:10.409Z,10.38
2019-02-19T08:57:39.705Z,10.38
2019-02-19T09:00:12.046Z,10.38
2019-02-19T09:02:41.380Z,16.25
2019-02-19T09:05:10.703Z,10.30
2019-02-19T09:07:40.015Z,11.73
2019-02-19T09:10:10.462Z,9.05
2019-02-19T09:12:39.764Z,8.65
2019-02-19T09:15:11.268Z,11.33
2019-02-19T09:17:40.707Z,8.98
2019-02-19T09:20:10.424Z,13.80
2019-02-19T09:22:39.720Z,8.48
2019-02-19T09:25:09.041Z,10.78
2019-02-19T09:27:38.318Z,8.90
2019-02-19T09:30:09.300Z,7.95
2019-02-19T09:32:38.613Z,10.00
2019-02-19T09:35:08.613Z,6.95
2019-02-19T09:37:37.912Z,10.03
2019-02-19T09:40:08.703Z,8.83
2019-02-19T09:42:38.044Z,8.03
2019-02-19T09:45:08.315Z,11.33
2019-02-19T09:47:37.582Z,8.43
2019-02-19T09:50:08.386Z,11.20
2019-02-19T09:52:37.632Z,9.55
2019-02-19T09:55:07.312Z,8.53
2019-02-19T09:57:36.650Z,10.13
2019-02-19T10:00:07.429Z,8.65
2019-02-19T10:02:36.749Z,10.25
2019-02-19T10:05:06.967Z,9.90
2019-02-19T10:07:36.263Z,11.03
2019-02-19T10:10:07.072Z,11.28
2019-02-19T10:12:36.372Z,9.80
2019-02-19T10:15:07.186Z,8.18
2019-02-19T10:17:36.510Z,11.88
2019-02-19T10:20:07.003Z,12.05
2019-02-19T10:22:36.348Z,11.20
2019-02-19T10:25:12.287Z,10.80
2019-02-19T10:27:41.629Z,10.00
2019-02-19T10:30:16.391Z,11.73
2019-02-19T10:32:45.694Z,11.70
2019-02-19T10:35:15.037Z,10.08
2019-02-19T10:37:44.353Z,9.48
2019-02-19T10:40:15.133Z,8.23
2019-02-19T10:42:44.421Z,9.33
2019-02-19T10:45:15.200Z,8.90
2019-02-19T10:47:44.505Z,11.48
2019-02-19T10:50:13.845Z,11.93
2019-02-19T10:52:43.146Z,8.13
2019-02-19T10:55:12.448Z,13.25
2019-02-19T10:57:41.756Z,11.30
2019-02-19T11:00:13.140Z,11.20
2019-02-19T11:02:42.487Z,8.15
2019-02-19T11:05:11.779Z,11.78
2019-02-19T11:07:41.071Z,9.95
2019-02-19T11:10:13.779Z,14.85
2019-02-19T11:12:44.169Z,9.65
2019-02-19T11:15:14.009Z,12.90
2019-02-19T11:17:43.305Z,12.15
2019-02-19T11:20:17.930Z,9.73
2019-02-19T11:22:47.248Z,9.90
2019-02-19T11:25:16.562Z,10.00
2019-02-19T11:27:45.885Z,10.82
2019-02-19T11:30:16.668Z,8.85
2019-02-19T11:32:45.966Z,9.68
2019-02-19T11:35:15.260Z,9.25
2019-02-19T11:37:45.591Z,8.48
2019-02-19T11:40:14.864Z,11.38
2019-02-19T11:42:44.187Z,10.03
2019-02-19T11:45:14.371Z,10.20
2019-02-19T11:47:43.626Z,12.28
2019-02-19T11:50:13.118Z,9.28
2019-02-19T11:52:42.415Z,9.45
2019-02-19T11:55:13.750Z,12.00
2019-02-19T11:57:43.053Z,10.23
2019-02-19T12:00:15.415Z,11.53
2019-02-19T12:02:44.721Z,9.65
2019-02-19T12:05:14.034Z,16.40
2019-02-19T12:07:43.349Z,9.70
2019-02-19T12:10:12.645Z,10.23
2019-02-19T12:12:41.938Z,12.55
2019-02-19T12:15:11.970Z,12.43
2019-02-19T12:17:41.259Z,9.45
2019-02-19T12:20:11.358Z,10.98
2019-02-19T12:22:40.696Z,10.40
2019-02-19T12:25:10.175Z,10.35
2019-02-19T12:27:39.451Z,10.53
2019-02-19T12:30:10.262Z,8.20
2019-02-19T12:32:39.859Z,8.55
2019-02-19T12:35:09.486Z,14.40
2019-02-19T12:37:39.901Z,13.80
2019-02-19T12:40:10.690Z,15.00
2019-02-19T12:42:39.993Z,12.45
2019-02-19T12:45:10.771Z,14.13
2019-02-19T12:47:40.053Z,14.00
2019-02-19T12:50:10.865Z,11.73
2019-02-19T12:52:40.142Z,13.95
2019-02-19T12:55:09.981Z,11.12
2019-02-19T12:57:39.269Z,11.50
2019-02-19T13:00:10.280Z,13.03
2019-02-19T13:02:39.575Z,12.05
2019-02-19T13:05:09.783Z,12.05
2019-02-19T13:07:39.108Z,12.93
2019-02-19T13:10:09.527Z,11.73
2019-02-19T13:12:38.837Z,11.05
2019-02-19T13:15:09.773Z,12.35
2019-02-19T13:17:39.102Z,13.70
2019-02-19T13:20:09.913Z,12.10
2019-02-19T13:22:39.233Z,14.40
2019-02-19T13:25:09.634Z,12.13
2019-02-19T13:27:38.915Z,11.00
2019-02-19T13:30:10.557Z,14.87
2019-02-19T13:32:40.010Z,15.88
2019-02-19T13:35:10.366Z,11.20
2019-02-19T13:37:39.568Z,13.28
2019-02-19T13:40:10.290Z,14.23
2019-02-19T13:42:39.597Z,11.20
2019-02-19T13:45:10.376Z,10.63
2019-02-19T13:47:40.688Z,11.08
2019-02-19T13:50:11.394Z,9.43
2019-02-19T13:52:48.292Z,12.65
2019-02-19T13:55:20.279Z,10.53
2019-02-19T13:57:49.553Z,12.55
2019-02-19T14:00:20.372Z,11.78
2019-02-19T14:02:49.488Z,9.30
2019-02-19T14:05:18.658Z,13.58
2019-02-19T14:07:47.819Z,11.75
2019-02-19T14:10:17.045Z,13.48
2019-02-19T14:12:46.198Z,12.60
2019-02-19T14:15:19.712Z,12.30
2019-02-19T14:17:48.836Z,12.00
2019-02-19T14:20:22.683Z,12.98
2019-02-19T14:22:54.912Z,13.72
2019-02-19T14:25:28.453Z,13.93
2019-02-19T14:28:12.537Z,10.15
2019-02-19T14:30:43.383Z,12.18
2019-02-19T14:33:30.634Z,12.43
2019-02-19T14:36:01.483Z,12.10
2019-02-19T14:38:35.356Z,10.93
2019-02-19T14:41:15.303Z,8.73
2019-02-19T14:43:46.185Z,9.73
2019-02-19T14:46:19.686Z,11.18
2019-02-19T14:48:56.566Z,8.33
2019-02-19T14:51:27.407Z,12.15
2019-02-19T14:54:01.510Z,11.43
2019-02-19T14:56:32.346Z,10.00
2019-02-19T14:59:15.224Z,9.73
2019-02-19T15:02:01.118Z,12.65
2019-02-19T15:04:34.971Z,10.05
2019-02-19T15:07:08.826Z,12.75
2019-02-19T15:09:45.569Z,11.12
2019-02-19T15:12:16.491Z,11.15
2019-02-19T15:14:56.686Z,11.03
2019-02-19T15:17:36.578Z,11.95
2019-02-19T15:20:25.208Z,11.78
2019-02-19T15:22:58.899Z,10.60
2019-02-19T15:25:48.348Z,11.57
2019-02-19T15:28:37.499Z,8.45
2019-02-19T15:31:23.376Z,8.25
2019-02-19T15:34:10.667Z,10.30
2019-02-19T15:36:44.360Z,8.55
2019-02-19T15:39:17.603Z,10.85
2019-02-19T15:42:04.980Z,9.15
2019-02-19T15:44:35.797Z,9.45
2019-02-19T15:47:06.562Z,13.18
2019-02-19T15:49:53.798Z,8.35
2019-02-19T15:52:27.308Z,10.68
2019-02-19T15:54:58.179Z,10.70
2019-02-19T15:57:28.962Z,9.93
2019-02-19T16:00:16.284Z,11.43
2019-02-19T16:02:49.830Z,9.93
2019-02-19T16:05:26.646Z,9.35
2019-02-19T16:08:14.159Z,9.50
2019-02-19T16:11:03.138Z,8.53
2019-02-19T16:13:36.929Z,10.20
2019-02-19T16:16:24.119Z,10.93
2019-02-19T16:18:57.698Z,15.72
2019-02-19T16:21:37.564Z,13.30
2019-02-19T16:24:08.400Z,11.10
2019-02-19T16:26:58.446Z,11.63
2019-02-19T16:29:38.187Z,11.73
2019-02-19T16:32:11.978Z,10.90
2019-02-19T16:34:59.397Z,12.10
2019-02-19T16:37:39.101Z,15.10
2019-02-19T16:40:09.976Z,12.82
2019-02-19T16:42:40.783Z,11.00
2019-02-19T16:45:17.731Z,13.05
2019-02-19T16:47:52.290Z,18.52
2019-02-19T16:50:29.051Z,17.20
2019-02-19T16:53:09.101Z,19.67
2019-02-19T16:55:48.778Z,19.77
2019-02-19T16:58:28.442Z,16.37
2019-02-19T17:00:59.282Z,17.45
2019-02-19T17:03:38.878Z,13.20
2019-02-19T17:06:27.804Z,13.72
2019-02-19T17:09:00.361Z,17.80
2019-02-19T17:11:45.915Z,14.05
2019-02-19T17:14:33.671Z,14.98
2019-02-19T17:17:08.631Z,12.55
2019-02-19T17:19:42.120Z,16.37
2019-02-19T17:22:12.958Z,12.90
2019-02-19T17:24:58.897Z,12.95
2019-02-19T17:27:32.856Z,12.35
2019-02-19T17:30:06.483Z,15.08
2019-02-19T17:32:37.749Z,13.05
2019-02-19T17:35:14.958Z,13.90
2019-02-19T17:38:01.135Z,13.45
2019-02-19T17:40:51.300Z,16.00
2019-02-19T17:43:23.222Z,13.80
2019-02-19T17:46:12.503Z,14.80
2019-02-19T17:48:58.675Z,14.05
2019-02-19T17:51:31.287Z,12.93
2019-02-19T17:54:02.106Z,13.13
2019-02-19T17:56:32.980Z,15.48
2019-02-19T17:59:12.772Z,14.45
2019-02-19T18:01:43.643Z,13.08
2019-02-19T18:04:29.953Z,11.73
2019-02-19T18:07:00.861Z,12.82
2019-02-19T18:09:34.298Z,11.57
2019-02-19T18:12:05.161Z,18.80
2019-02-19T18:14:51.083Z,14.03
2019-02-19T18:17:21.956Z,16.48
2019-02-19T18:19:51.084Z,14.90
2019-02-19T18:22:20.282Z,16.80
2019-02-19T18:24:49.473Z,13.13
2019-02-19T18:27:19.782Z,15.70
2019-02-19T18:29:49.019Z,15.23
2019-02-19T18:32:18.330Z,16.00
2019-02-19T18:34:47.548Z,14.40
2019-02-19T18:37:16.755Z,15.63
2019-02-19T18:39:46.004Z,14.28
2019-02-19T18:42:15.246Z,19.05
2019-02-19T18:44:44.411Z,13.60
2019-02-19T18:47:13.572Z,14.00
2019-02-19T18:49:42.863Z,13.60
2019-02-19T18:52:12.068Z,14.68
2019-02-19T18:54:41.261Z,15.78
2019-02-19T18:57:10.501Z,15.03
2019-02-19T18:59:39.725Z,16.40
2019-02-19T19:02:08.969Z,14.33
2019-02-19T19:04:38.201Z,16.52
2019-02-19T19:07:07.485Z,16.05
2019-02-19T19:09:37.675Z,17.60
2019-02-19T19:12:06.841Z,15.65
2019-02-19T19:14:36.086Z,15.83
2019-02-19T19:17:05.300Z,14.63
2019-02-19T19:19:35.504Z,14.25
2019-02-19T19:22:04.790Z,14.03
2019-02-19T19:24:34.103Z,15.90
2019-02-19T19:27:03.220Z,13.18
2019-02-19T19:29:32.452Z,16.75
2019-02-19T19:32:01.688Z,16.82
2019-02-19T19:34:32.081Z,13.85
2019-02-19T19:37:01.424Z,13.90
2019-02-19T19:39:30.707Z,17.17
2019-02-19T19:41:59.931Z,15.90
2019-02-19T19:44:29.207Z,16.82
2019-02-19T19:46:58.399Z,17.60
2019-02-19T19:49:27.532Z,14.33
2019-02-19T19:51:56.802Z,11.83
2019-02-19T19:54:25.994Z,18.62
2019-02-19T19:56:55.312Z,16.35
2019-02-19T19:59:24.505Z,12.50
2019-02-19T20:01:53.623Z,15.25
2019-02-19T20:04:22.806Z,13.58
2019-02-19T20:06:52.031Z,17.42
2019-02-19T20:09:22.363Z,12.70
2019-02-19T20:11:51.609Z,13.00
2019-02-19T20:14:20.756Z,15.60
2019-02-19T20:16:49.930Z,15.35
2019-02-19T20:19:19.218Z,15.93
2019-02-19T20:21:48.496Z,17.12
2019-02-19T20:24:17.744Z,14.15
2019-02-19T20:26:46.943Z,16.37
2019-02-19T20:29:16.176Z,16.50
2019-02-19T20:31:45.517Z,16.80
2019-02-19T20:34:14.723Z,14.40
2019-02-19T20:36:44.101Z,15.68
2019-02-19T20:39:13.415Z,15.03
2019-02-19T20:41:42.589Z,19.32
2019-02-19T20:44:11.836Z,15.28
2019-02-19T20:46:41.067Z,15.05
2019-02-19T20:49:10.306Z,19.67
2019-02-19T20:51:39.558Z,16.55
2019-02-19T20:54:08.771Z,18.35
2019-02-19T20:56:38.030Z,14.68
2019-02-19T20:59:07.245Z,16.05
2019-02-19T21:01:36.459Z,17.32
2019-02-19T21:04:05.706Z,18.02
2019-02-19T21:06:34.928Z,17.75
2019-02-19T21:09:05.351Z,15.83
2019-02-19T21:11:36.128Z,17.42
2019-02-19T21:14:05.344Z,18.02
2019-02-19T21:16:34.559Z,17.07
2019-02-19T21:19:04.812Z,17.57
2019-02-19T21:21:34.068Z,18.90
2019-02-19T21:24:03.337Z,18.62
2019-02-19T21:26:32.628Z,19.87
2019-02-19T21:29:01.862Z,17.48
2019-02-19T21:31:31.131Z,19.65
2019-02-19T21:34:00.319Z,19.05
2019-02-19T21:36:29.671Z,21.23
2019-02-19T21:38:58.890Z,18.52
2019-02-19T21:41:28.135Z,20.00
2019-02-19T21:43:57.388Z,20.12
2019-02-19T21:46:26.579Z,20.12
2019-02-19T21:48:55.807Z,21.52
2019-02-19T21:51:25.062Z,18.98
2019-02-19T21:53:54.283Z,24.55
2019-02-19T21:56:23.636Z,20.72
2019-02-19T21:58:52.884Z,20.80
2019-02-19T22:01:22.116Z,20.17
2019-02-19T22:03:51.370Z,19.52
2019-02-19T22:06:20.588Z,20.05
2019-02-19T22:08:49.822Z,17.70
2019-02-19T22:11:18.985Z,21.50
2019-02-19T22:13:48.175Z,25.90
2019-02-19T22:16:17.433Z,19.37
2019-02-19T22:18:46.655Z,18.98
2019-02-19T22:21:20.462Z,18.23
2019-02-19T22:23:49.692Z,21.70
2019-02-19T22:26:18.921Z,20.27
2019-02-19T22:28:48.099Z,23.22
2019-02-19T22:31:17.279Z,21.60
2019-02-19T22:33:46.420Z,22.10
2019-02-19T22:36:15.661Z,23.60
2019-02-19T22:38:44.835Z,22.25
2019-02-19T22:41:13.980Z,20.05
2019-02-19T22:43:43.152Z,21.82
2019-02-19T22:46:12.301Z,19.45
2019-02-19T22:48:41.460Z,25.25
2019-02-19T22:51:10.704Z,22.67
2019-02-19T22:53:47.423Z,22.02
2019-02-19T22:56:21.064Z,19.40
2019-02-19T22:58:50.245Z,19.85
2019-02-19T23:01:21.444Z,18.82
2019-02-19T23:03:50.897Z,20.52
2019-02-19T23:06:20.071Z,18.52
2019-02-19T23:08:49.304Z,19.12
2019-02-19T23:11:18.529Z,18.27
2019-02-19T23:13:47.749Z,19.70
2019-02-19T23:16:16.966Z,20.15
2019-02-19T23:18:47.224Z,23.55
2019-02-19T23:21:16.415Z,24.82
2019-02-19T23:23:45.598Z,21.48
2019-02-19T23:26:14.792Z,20.57
2019-02-19T23:28:44.023Z,21.20
2019-02-19T23:31:13.283Z,21.73
2019-02-19T23:33:42.410Z,24.02
2019-02-19T23:36:13.231Z,20.02
2019-02-19T23:38:42.474Z,21.73
2019-02-19T23:41:11.598Z,23.42
2019-02-19T23:43:40.784Z,20.82
2019-02-19T23:46:10.884Z,24.57
2019-02-19T23:48:40.063Z,26.48
2019-02-19T23:51:09.271Z,22.20
2019-02-19T23:53:38.446Z,24.20
2019-02-19T23:56:08.768Z,22.07
2019-02-19T23:58:37.930Z,23.47
